地図

経路データ

SID SEASON NUMBER BASIN SUBBASIN NAME ISO_TIME NATURE LAT LON WMO_WIND WMO_PRES WMO_AGENCY TRACK_TYPE DIST2LAND LANDFALL IFLAG USA_AGENCY USA_ATCF_ID USA_LAT USA_LON USA_RECORD USA_STATUS USA_WIND USA_PRES USA_SSHS USA_R34_NE USA_R34_SE USA_R34_SW USA_R34_NW USA_R50_NE USA_R50_SE USA_R50_SW USA_R50_NW USA_R64_NE USA_R64_SE USA_R64_SW USA_R64_NW USA_POCI USA_ROCI USA_RMW USA_EYE TOKYO_LAT TOKYO_LON TOKYO_GRADE TOKYO_WIND TOKYO_PRES TOKYO_R50_DIR TOKYO_R50_LONG TOKYO_R50_SHORT TOKYO_R30_DIR TOKYO_R30_LONG TOKYO_R30_SHORT TOKYO_LAND CMA_LAT CMA_LON CMA_CAT CMA_WIND CMA_PRES HKO_LAT HKO_LON HKO_CAT HKO_WIND HKO_PRES NEWDELHI_LAT NEWDELHI_LON NEWDELHI_GRADE NEWDELHI_WIND NEWDELHI_PRES NEWDELHI_CI NEWDELHI_DP NEWDELHI_POCI REUNION_LAT REUNION_LON REUNION_TYPE REUNION_WIND REUNION_PRES REUNION_TNUM REUNION_CI REUNION_RMW REUNION_R34_NE REUNION_R34_SE REUNION_R34_SW REUNION_R34_NW REUNION_R50_NE REUNION_R50_SE REUNION_R50_SW REUNION_R50_NW REUNION_R64_NE REUNION_R64_SE REUNION_R64_SW REUNION_R64_NW BOM_LAT BOM_LON BOM_TYPE BOM_WIND BOM_PRES BOM_TNUM BOM_CI BOM_RMW BOM_R34_NE BOM_R34_SE BOM_R34_SW BOM_R34_NW BOM_R50_NE BOM_R50_SE BOM_R50_SW BOM_R50_NW BOM_R64_NE BOM_R64_SE BOM_R64_SW BOM_R64_NW BOM_ROCI BOM_POCI BOM_EYE BOM_POS_METHOD BOM_PRES_METHOD NADI_LAT NADI_LON NADI_CAT NADI_WIND NADI_PRES WELLINGTON_LAT WELLINGTON_LON WELLINGTON_WIND WELLINGTON_PRES DS824_LAT DS824_LON DS824_STAGE DS824_WIND DS824_PRES TD9636_LAT TD9636_LON TD9636_STAGE TD9636_WIND TD9636_PRES TD9635_LAT TD9635_LON TD9635_WIND TD9635_PRES TD9635_ROCI NEUMANN_LAT NEUMANN_LON NEUMANN_CLASS NEUMANN_WIND NEUMANN_PRES MLC_LAT MLC_LON MLC_CLASS MLC_WIND MLC_PRES USA_GUST BOM_GUST BOM_GUST_PER REUNION_GUST REUNION_GUST_PER USA_SEAHGT USA_SEARAD_NE USA_SEARAD_SE USA_SEARAD_SW USA_SEARAD_NW STORM_SPEED STORM_DIR
1896042S09063 1896 4 SI MM NOT_NAMED 1896-02-11 06:00:00 NR -9.50000 62.6000 reunion main 1297 1262 _____O________ -1 -9.50000 62.6000 99 9.90000 6 203
1896042S09063 1896 4 SI MM NOT_NAMED 1896-02-11 09:00:00 NR -9.78374 62.4733 main 1262 1237 _____P________ -1 -9.78374 62.4733 99 6 204
1896042S09063 1896 4 SI MM NOT_NAMED 1896-02-11 12:00:00 NR -10.0643 62.3478 main 1223 1198 _____P________ -1 -10.0643 62.3478 99 6 204
1896042S09063 1896 4 SI MM NOT_NAMED 1896-02-11 15:00:00 NR -10.3383 62.2249 main 1198 1163 _____P________ -1 -10.3383 62.2249 99 6 204
1896042S09063 1896 4 SI MM NOT_NAMED 1896-02-11 18:00:00 NR -10.6028 62.1061 main 1163 1138 _____P________ -1 -10.6028 62.1061 99 6 204
1896042S09063 1896 4 SI MM NOT_NAMED 1896-02-11 21:00:00 NR -10.8544 61.9927 main 1127 1103 _____P________ -1 -10.8544 61.9927 99 5 204
1896042S09063 1896 4 SI MM NOT_NAMED 1896-02-12 00:00:00 NR -11.0899 61.8863 main 1103 1078 _____P________ -1 -11.0899 61.8863 99 5 204
1896042S09063 1896 4 SI MM NOT_NAMED 1896-02-12 03:00:00 NR -11.3062 61.7882 main 1078 1053 _____P________ -1 -11.3062 61.7882 99 5 204
1896042S09063 1896 4 SI MM NOT_NAMED 1896-02-12 06:00:00 NR -11.5000 61.7000 reunion main 1053 1028 _____O________ -1 -11.5000 61.7000 99 9.90000 4 204
1896042S09063 1896 4 SI MM NOT_NAMED 1896-02-12 09:00:00 NR -11.6695 61.6225 main 1028 1018 _____P________ -1 -11.6695 61.6225 99 4 204
1896042S09063 1896 4 SI MM NOT_NAMED 1896-02-12 12:00:00 NR -11.8176 61.5539 main 1018 1003 _____P________ -1 -11.8176 61.5539 99 3 204
1896042S09063 1896 4 SI MM NOT_NAMED 1896-02-12 15:00:00 NR -11.9488 61.4920 main 1003 978 _____P________ -1 -11.9488 61.4920 99 3 206
1896042S09063 1896 4 SI MM NOT_NAMED 1896-02-12 18:00:00 NR -12.0673 61.4344 main 978 968 _____P________ -1 -12.0673 61.4344 99 3 206
1896042S09063 1896 4 SI MM NOT_NAMED 1896-02-12 21:00:00 NR -12.1773 61.3787 main 968 953 _____P________ -1 -12.1773 61.3787 99 2 208
1896042S09063 1896 4 SI MM NOT_NAMED 1896-02-13 00:00:00 NR -12.2833 61.3227 main 953 943 _____P________ -1 -12.2833 61.3227 99 2 208
1896042S09063 1896 4 SI MM NOT_NAMED 1896-02-13 03:00:00 NR -12.3894 61.2639 main 943 928 _____P________ -1 -12.3894 61.2639 99 2 209
1896042S09063 1896 4 SI MM NOT_NAMED 1896-02-13 06:00:00 NR -12.5000 61.2000 reunion main 928 914 _____O________ -1 -12.5000 61.2000 99 9.90000 3 209
1896042S09063 1896 4 SI MM NOT_NAMED 1896-02-13 09:00:00 NR -12.6309 61.1218 main 914 889 _____P________ -1 -12.6309 61.1218 99 3 211
1896042S09063 1896 4 SI MM NOT_NAMED 1896-02-13 12:00:00 NR -12.7638 61.0393 main 889 879 _____P________ -1 -12.7638 61.0393 99 3 212
1896042S09063 1896 4 SI MM NOT_NAMED 1896-02-13 15:00:00 NR -12.8984 60.9535 main 879 864 _____P________ -1 -12.8984 60.9535 99 3 212
1896042S09063 1896 4 SI MM NOT_NAMED 1896-02-13 18:00:00 NR -13.0350 60.8649 main 864 839 _____P________ -1 -13.0350 60.8649 99 3 212
1896042S09063 1896 4 SI MM NOT_NAMED 1896-02-13 21:00:00 NR -13.1734 60.7745 main 839 825 _____P________ -1 -13.1734 60.7745 99 3 213
1896042S09063 1896 4 SI MM NOT_NAMED 1896-02-14 00:00:00 NR -13.3138 60.6830 main 825 810 _____P________ -1 -13.3138 60.6830 99 3 212
1896042S09063 1896 4 SI MM NOT_NAMED 1896-02-14 03:00:00 NR -13.4559 60.5913 main 800 786 _____P________ -1 -13.4559 60.5913 99 3 212
1896042S09063 1896 4 SI MM NOT_NAMED 1896-02-14 06:00:00 NR -13.6000 60.5000 reunion main 786 771 _____O________ -1 -13.6000 60.5000 99 9.90000 3 211
1896042S09063 1896 4 SI MM NOT_NAMED 1896-02-14 09:00:00 NR -13.7491 60.4144 main 771 746 _____P________ -1 -13.7491 60.4144 99 3 209
1896042S09063 1896 4 SI MM NOT_NAMED 1896-02-14 12:00:00 NR -13.9009 60.3290 main 746 732 _____P________ -1 -13.9009 60.3290 99 3 209
1896042S09063 1896 4 SI MM NOT_NAMED 1896-02-14 15:00:00 NR -14.0540 60.2434 main 722 711 _____P________ -1 -14.0540 60.2434 99 4 209
1896042S09063 1896 4 SI MM NOT_NAMED 1896-02-14 18:00:00 NR -14.2074 60.1574 main 711 686 _____P________ -1 -14.2074 60.1574 99 4 209
1896042S09063 1896 4 SI MM NOT_NAMED 1896-02-14 21:00:00 NR -14.3599 60.0704 main 686 672 _____P________ -1 -14.3599 60.0704 99 3 209
1896042S09063 1896 4 SI MM NOT_NAMED 1896-02-15 00:00:00 NR -14.5102 59.9821 main 672 658 _____P________ -1 -14.5102 59.9821 99 3 210
1896042S09063 1896 4 SI MM NOT_NAMED 1896-02-15 03:00:00 NR -14.6573 59.8921 main 647 633 _____P________ -1 -14.6573 59.8921 99 3 212
1896042S09063 1896 4 SI MM NOT_NAMED 1896-02-15 06:00:00 NR -14.8000 59.8000 reunion main 633 619 _____O________ -1 -14.8000 59.8000 99 9.90000 3 213
1896042S09063 1896 4 SI MM NOT_NAMED 1896-02-15 09:00:00 NR -14.9304 59.7083 main 619 605 _____P________ -1 -14.9304 59.7083 99 3 215
1896042S09063 1896 4 SI MM NOT_NAMED 1896-02-15 12:00:00 NR -15.0562 59.6150 main 594 580 _____P________ -1 -15.0562 59.6150 99 3 216
1896042S09063 1896 4 SI MM NOT_NAMED 1896-02-15 15:00:00 NR -15.1788 59.5197 main 580 566 _____P________ -1 -15.1788 59.5197 99 3 217
1896042S09063 1896 4 SI MM NOT_NAMED 1896-02-15 18:00:00 NR -15.2999 59.4221 main 566 552 _____P________ -1 -15.2999 59.4221 99 3 218
1896042S09063 1896 4 SI MM NOT_NAMED 1896-02-15 21:00:00 NR -15.4210 59.3216 main 552 538 _____P________ -1 -15.4210 59.3216 99 3 219
1896042S09063 1896 4 SI MM NOT_NAMED 1896-02-16 00:00:00 NR -15.5436 59.2181 main 538 514 _____P________ -1 -15.5436 59.2181 99 3 219
1896042S09063 1896 4 SI MM NOT_NAMED 1896-02-16 03:00:00 NR -15.6695 59.1110 main 514 500 _____P________ -1 -15.6695 59.1110 99 3 219
1896042S09063 1896 4 SI MM NOT_NAMED 1896-02-16 06:00:00 NR -15.8000 59.0000 reunion main 500 486 _____O________ -1 -15.8000 59.0000 99 9.90000 4 220
1896042S09063 1896 4 SI MM NOT_NAMED 1896-02-16 09:00:00 NR -15.9388 58.8786 main 486 462 _____P________ -1 -15.9388 58.8786 99 4 220
1896042S09063 1896 4 SI MM NOT_NAMED 1896-02-16 12:00:00 NR -16.0816 58.7522 main 462 446 _____P________ -1 -16.0816 58.7522 99 4 220
1896042S09063 1896 4 SI MM NOT_NAMED 1896-02-16 15:00:00 NR -16.2280 58.6229 main 446 422 _____P________ -1 -16.2280 58.6229 99 4 220
1896042S09063 1896 4 SI MM NOT_NAMED 1896-02-16 18:00:00 NR -16.3776 58.4926 main 422 409 _____P________ -1 -16.3776 58.4926 99 4 220
1896042S09063 1896 4 SI MM NOT_NAMED 1896-02-16 21:00:00 NR -16.5300 58.3632 main 409 384 _____P________ -1 -16.5300 58.3632 99 4 218
1896042S09063 1896 4 SI MM NOT_NAMED 1896-02-17 00:00:00 NR -16.6848 58.2366 main 384 371 _____P________ -1 -16.6848 58.2366 99 4 217
1896042S09063 1896 4 SI MM NOT_NAMED 1896-02-17 03:00:00 NR -16.8416 58.1149 main 371 348 _____P________ -1 -16.8416 58.1149 99 4 216
1896042S09063 1896 4 SI MM NOT_NAMED 1896-02-17 06:00:00 NR -17.0000 58.0000 reunion main 348 336 _____O________ -1 -17.0000 58.0000 99 9.90000 4 215
1896042S09063 1896 4 SI MM NOT_NAMED 1896-02-17 09:00:00 NR -17.1540 57.8795 main 325 313 _____P________ -1 -17.1540 57.8795 99 4 216
1896042S09063 1896 4 SI MM NOT_NAMED 1896-02-17 12:00:00 NR -17.3097 57.7630 main 313 290 _____P________ -1 -17.3097 57.7630 99 4 215
1896042S09063 1896 4 SI MM NOT_NAMED 1896-02-17 15:00:00 NR -17.4674 57.6533 main 290 279 _____P________ -1 -17.4674 57.6533 99 4 213
1896042S09063 1896 4 SI MM NOT_NAMED 1896-02-17 18:00:00 NR -17.6275 57.5529 main 279 257 _____P________ -1 -17.6275 57.5529 99 4 209
1896042S09063 1896 4 SI MM NOT_NAMED 1896-02-17 21:00:00 NR -17.7904 57.4647 main 257 246 _____P________ -1 -17.7904 57.4647 99 4 205
1896042S09063 1896 4 SI MM NOT_NAMED 1896-02-18 00:00:00 NR -17.9566 57.3913 main 235 223 _____P________ -1 -17.9566 57.3913 99 4 200
1896042S09063 1896 4 SI MM NOT_NAMED 1896-02-18 03:00:00 NR -18.1263 57.3355 main 224 202 _____P________ -1 -18.1263 57.3355 99 4 194
1896042S09063 1896 4 SI MM NOT_NAMED 1896-02-18 06:00:00 NR -18.3000 57.3000 reunion main 202 180 _____O________ -1 -18.3000 57.3000 99 9.90000 4 190
1896042S09063 1896 4 SI MM NOT_NAMED 1896-02-18 09:00:00 NR -18.4723 57.2776 main 180 169 _____P________ -1 -18.4723 57.2776 99 4 0
1896042S09063 1896 4 SI MM NOT_NAMED 1896-02-18 12:00:00 NR -18.6482 57.2747 main 169 146 _____P________ -1 -18.6482 57.2747 99 4 177
1896042S09063 1896 4 SI MM NOT_NAMED 1896-02-18 15:00:00 NR -18.8281 57.2901 main 146 124 _____P________ -1 -18.8281 57.2901 99 4 173
1896042S09063 1896 4 SI MM NOT_NAMED 1896-02-18 18:00:00 NR -19.0122 57.3227 main 124 101 _____P________ -1 -19.0122 57.3227 99 4 168
1896042S09063 1896 4 SI MM NOT_NAMED 1896-02-18 21:00:00 NR -19.2011 57.3712 main 101 78 _____P________ -1 -19.2011 57.3712 99 4 164
1896042S09063 1896 4 SI MM NOT_NAMED 1896-02-19 00:00:00 NR -19.3951 57.4344 main 78 55 _____P________ -1 -19.3951 57.4344 99 4 161
1896042S09063 1896 4 SI MM NOT_NAMED 1896-02-19 03:00:00 NR -19.5946 57.5110 main 55 33 _____P________ -1 -19.5946 57.5110 99 4 158
1896042S09063 1896 4 SI MM NOT_NAMED 1896-02-19 06:00:00 NR -19.8000 57.6000 reunion main 33 11 _____O________ -1 -19.8000 57.6000 99 9.90000 5 158
1896042S09063 1896 4 SI MM NOT_NAMED 1896-02-19 09:00:00 NR -20.0206 57.6884 main 11 0 _____P________ -1 -20.0206 57.6884 99 5 158
1896042S09063 1896 4 SI MM NOT_NAMED 1896-02-19 12:00:00 NR -20.2488 57.7911 main 10 0 _____P________ -1 -20.2488 57.7911 99 5 156
1896042S09063 1896 4 SI MM NOT_NAMED 1896-02-19 15:00:00 NR -20.4813 57.9063 main 20 20 _____P________ -1 -20.4813 57.9063 99 5 154
1896042S09063 1896 4 SI MM NOT_NAMED 1896-02-19 18:00:00 NR -20.7151 58.0319 main 38 38 _____P________ -1 -20.7151 58.0319 99 5 153
1896042S09063 1896 4 SI MM NOT_NAMED 1896-02-19 21:00:00 NR -20.9469 58.1661 main 68 68 _____P________ -1 -20.9469 58.1661 99 5 151
1896042S09063 1896 4 SI MM NOT_NAMED 1896-02-20 00:00:00 NR -21.1738 58.3069 main 100 100 _____P________ -1 -21.1738 58.3069 99 5 149
1896042S09063 1896 4 SI MM NOT_NAMED 1896-02-20 03:00:00 NR -21.3925 58.4522 main 130 130 _____P________ -1 -21.3925 58.4522 99 5 147
1896042S09063 1896 4 SI MM NOT_NAMED 1896-02-20 06:00:00 NR -21.6000 58.6000 reunion main 154 154 _____O________ -1 -21.6000 58.6000 99 9.90000 5 145
1896042S09063 1896 4 SI MM NOT_NAMED 1896-02-20 09:00:00 NR -21.7940 58.7486 main 178 178 _____P________ -1 -21.7940 58.7486 99 5 144
1896042S09063 1896 4 SI MM NOT_NAMED 1896-02-20 12:00:00 NR -21.9754 58.8977 main 208 208 _____P________ -1 -21.9754 58.8977 99 4 142
1896042S09063 1896 4 SI MM NOT_NAMED 1896-02-20 15:00:00 NR -22.1461 59.0472 main 223 223 _____P________ -1 -22.1461 59.0472 99 4 140
1896042S09063 1896 4 SI MM NOT_NAMED 1896-02-20 18:00:00 NR -22.3078 59.1971 main 254 254 _____P________ -1 -22.3078 59.1971 99 4 139
1896042S09063 1896 4 SI MM NOT_NAMED 1896-02-20 21:00:00 NR -22.4623 59.3473 main 278 278 _____P________ -1 -22.4623 59.3473 99 4 138
1896042S09063 1896 4 SI MM NOT_NAMED 1896-02-21 00:00:00 NR -22.6113 59.4979 main 299 299 _____P________ -1 -22.6113 59.4979 99 4 137
1896042S09063 1896 4 SI MM NOT_NAMED 1896-02-21 03:00:00 NR -22.7566 59.6488 main 323 323 _____P________ -1 -22.7566 59.6488 99 4 136
1896042S09063 1896 4 SI MM NOT_NAMED 1896-02-21 06:00:00 NR -22.9000 59.8000 reunion main 345 _____O________ -1 -22.9000 59.8000 99 9.90000 4 136

IBTrACS Databaseについて

本データベースは、米国NOAAが公開する1842年以降の世界の熱帯低気圧のベストトラックデータアーカイブInternational Best Track Archive for Climate Stewardship (IBTrACS)を、ウェブで閲覧しやすい形式に変換したものです。

最終更新日:2021-12-06